sensor_id;sensor_type;location;lat;lon;timestamp;temperature;humidity
72277;SHT30;61204;49.980;8.358;2023-04-28T00:01:30;12.14;57.56
72277;SHT30;61204;49.980;8.358;2023-04-28T00:03:56;12.11;57.78
72277;SHT30;61204;49.980;8.358;2023-04-28T00:06:22;12.10;57.93
72277;SHT30;61204;49.980;8.358;2023-04-28T00:08:48;12.11;57.97
72277;SHT30;61204;49.980;8.358;2023-04-28T00:11:13;12.14;57.73
72277;SHT30;61204;49.980;8.358;2023-04-28T00:13:38;12.13;57.89
72277;SHT30;61204;49.980;8.358;2023-04-28T00:16:04;12.13;57.61
72277;SHT30;61204;49.980;8.358;2023-04-28T00:18:30;12.16;57.68
72277;SHT30;61204;49.980;8.358;2023-04-28T00:20:57;12.14;57.65
72277;SHT30;61204;49.980;8.358;2023-04-28T00:23:22;12.16;57.79
72277;SHT30;61204;49.980;8.358;2023-04-28T00:25:51;12.08;58.10
72277;SHT30;61204;49.980;8.358;2023-04-28T00:28:20;12.11;58.21
72277;SHT30;61204;49.980;8.358;2023-04-28T00:30:46;12.22;57.84
72277;SHT30;61204;49.980;8.358;2023-04-28T00:33:12;12.24;58.21
72277;SHT30;61204;49.980;8.358;2023-04-28T00:35:40;12.17;59.08
72277;SHT30;61204;49.980;8.358;2023-04-28T00:38:06;12.16;58.49
72277;SHT30;61204;49.980;8.358;2023-04-28T00:40:38;12.13;58.30
72277;SHT30;61204;49.980;8.358;2023-04-28T00:43:04;12.17;58.15
72277;SHT30;61204;49.980;8.358;2023-04-28T00:45:32;12.14;58.44
72277;SHT30;61204;49.980;8.358;2023-04-28T00:47:59;12.11;58.93
72277;SHT30;61204;49.980;8.358;2023-04-28T00:50:25;12.07;58.93
72277;SHT30;61204;49.980;8.358;2023-04-28T00:52:51;12.10;60.16
72277;SHT30;61204;49.980;8.358;2023-04-28T00:55:17;12.04;60.45
72277;SHT30;61204;49.980;8.358;2023-04-28T00:57:44;12.01;60.42
72277;SHT30;61204;49.980;8.358;2023-04-28T01:00:14;11.98;59.76
72277;SHT30;61204;49.980;8.358;2023-04-28T01:02:40;11.97;60.12
72277;SHT30;61204;49.980;8.358;2023-04-28T01:05:07;11.94;59.80
72277;SHT30;61204;49.980;8.358;2023-04-28T01:07:33;11.94;59.82
72277;SHT30;61204;49.980;8.358;2023-04-28T01:09:59;11.93;59.82
72277;SHT30;61204;49.980;8.358;2023-04-28T01:12:24;11.89;60.55
72277;SHT30;61204;49.980;8.358;2023-04-28T01:14:50;11.87;63.03
72277;SHT30;61204;49.980;8.358;2023-04-28T01:17:16;11.80;65.21
72277;SHT30;61204;49.980;8.358;2023-04-28T01:19:42;11.66;66.22
72277;SHT30;61204;49.980;8.358;2023-04-28T01:22:07;11.59;67.32
72277;SHT30;61204;49.980;8.358;2023-04-28T01:24:38;11.46;68.57
72277;SHT30;61204;49.980;8.358;2023-04-28T01:27:03;11.36;69.09
72277;SHT30;61204;49.980;8.358;2023-04-28T01:29:29;11.27;70.35
72277;SHT30;61204;49.980;8.358;2023-04-28T01:31:54;11.18;71.05
72277;SHT30;61204;49.980;8.358;2023-04-28T01:34:19;11.11;71.74
72277;SHT30;61204;49.980;8.358;2023-04-28T01:36:45;11.06;72.02
72277;SHT30;61204;49.980;8.358;2023-04-28T01:39:10;11.04;72.09
72277;SHT30;61204;49.980;8.358;2023-04-28T01:41:36;10.96;71.50
72277;SHT30;61204;49.980;8.358;2023-04-28T01:44:01;10.94;71.34
72277;SHT30;61204;49.980;8.358;2023-04-28T01:46:28;10.93;71.41
72277;SHT30;61204;49.980;8.358;2023-04-28T01:48:53;10.96;70.94
72277;SHT30;61204;49.980;8.358;2023-04-28T01:51:21;10.93;72.88
72277;SHT30;61204;49.980;8.358;2023-04-28T01:56:50;10.92;71.25
72277;SHT30;61204;49.980;8.358;2023-04-28T01:59:15;10.92;71.85
72277;SHT30;61204;49.980;8.358;2023-04-28T02:01:40;10.84;72.06
72277;SHT30;61204;49.980;8.358;2023-04-28T02:04:06;10.76;73.17
72277;SHT30;61204;49.980;8.358;2023-04-28T02:06:31;10.69;74.18
72277;SHT30;61204;49.980;8.358;2023-04-28T02:08:57;10.59;73.99
72277;SHT30;61204;49.980;8.358;2023-04-28T02:11:22;10.55;74.14
72277;SHT30;61204;49.980;8.358;2023-04-28T02:13:48;10.56;74.95
72277;SHT30;61204;49.980;8.358;2023-04-28T02:16:17;10.52;75.58
72277;SHT30;61204;49.980;8.358;2023-04-28T02:18:42;10.50;75.37
72277;SHT30;61204;49.980;8.358;2023-04-28T02:21:11;10.42;76.41
72277;SHT30;61204;49.980;8.358;2023-04-28T02:23:37;10.35;76.19
72277;SHT30;61204;49.980;8.358;2023-04-28T02:26:03;10.30;76.43
72277;SHT30;61204;49.980;8.358;2023-04-28T02:28:31;10.32;76.82
72277;SHT30;61204;49.980;8.358;2023-04-28T02:31:08;10.25;76.65
72277;SHT30;61204;49.980;8.358;2023-04-28T02:33:35;10.20;77.16
72277;SHT30;61204;49.980;8.358;2023-04-28T02:36:03;10.20;77.65
72277;SHT30;61204;49.980;8.358;2023-04-28T02:38:29;10.17;78.11
72277;SHT30;61204;49.980;8.358;2023-04-28T02:41:05;10.18;77.93
72277;SHT30;61204;49.980;8.358;2023-04-28T02:43:33;10.22;78.10
72277;SHT30;61204;49.980;8.358;2023-04-28T02:46:02;10.24;77.51
72277;SHT30;61204;49.980;8.358;2023-04-28T02:48:31;10.25;77.19
72277;SHT30;61204;49.980;8.358;2023-04-28T02:50:59;10.30;76.60
72277;SHT30;61204;49.980;8.358;2023-04-28T02:53:25;10.30;77.18
72277;SHT30;61204;49.980;8.358;2023-04-28T02:55:50;10.28;77.04
72277;SHT30;61204;49.980;8.358;2023-04-28T02:58:16;10.27;77.09
72277;SHT30;61204;49.980;8.358;2023-04-28T03:00:44;10.30;77.01
72277;SHT30;61204;49.980;8.358;2023-04-28T03:03:10;10.27;77.32
72277;SHT30;61204;49.980;8.358;2023-04-28T03:05:36;10.27;77.59
72277;SHT30;61204;49.980;8.358;2023-04-28T03:08:04;10.27;77.55
72277;SHT30;61204;49.980;8.358;2023-04-28T03:10:39;10.25;78.39
72277;SHT30;61204;49.980;8.358;2023-04-28T03:13:06;10.30;77.02
72277;SHT30;61204;49.980;8.358;2023-04-28T03:15:32;10.37;79.85
72277;SHT30;61204;49.980;8.358;2023-04-28T03:17:57;10.30;81.27
72277;SHT30;61204;49.980;8.358;2023-04-28T03:20:23;10.22;81.69
72277;SHT30;61204;49.980;8.358;2023-04-28T03:22:48;10.15;82.08
72277;SHT30;61204;49.980;8.358;2023-04-28T03:25:14;10.11;82.98
72277;SHT30;61204;49.980;8.358;2023-04-28T03:27:39;10.18;82.76
72277;SHT30;61204;49.980;8.358;2023-04-28T03:30:05;10.21;83.43
72277;SHT30;61204;49.980;8.358;2023-04-28T03:32:31;10.20;81.62
72277;SHT30;61204;49.980;8.358;2023-04-28T03:34:56;10.25;81.32
72277;SHT30;61204;49.980;8.358;2023-04-28T03:37:22;10.24;80.15
72277;SHT30;61204;49.980;8.358;2023-04-28T03:39:47;10.24;80.59
72277;SHT30;61204;49.980;8.358;2023-04-28T03:42:12;10.31;81.18
72277;SHT30;61204;49.980;8.358;2023-04-28T03:44:38;10.35;80.02
72277;SHT30;61204;49.980;8.358;2023-04-28T03:47:06;10.35;81.23
72277;SHT30;61204;49.980;8.358;2023-04-28T03:49:31;10.32;82.09
72277;SHT30;61204;49.980;8.358;2023-04-28T03:51:57;10.32;81.89
72277;SHT30;61204;49.980;8.358;2023-04-28T03:54:22;10.34;82.18
72277;SHT30;61204;49.980;8.358;2023-04-28T03:56:48;10.32;82.45
72277;SHT30;61204;49.980;8.358;2023-04-28T03:59:13;10.25;82.06
72277;SHT30;61204;49.980;8.358;2023-04-28T04:01:39;10.24;83.44
72277;SHT30;61204;49.980;8.358;2023-04-28T04:04:04;10.18;83.02
72277;SHT30;61204;49.980;8.358;2023-04-28T04:06:30;10.15;83.61
72277;SHT30;61204;49.980;8.358;2023-04-28T04:08:56;10.07;83.47
72277;SHT30;61204;49.980;8.358;2023-04-28T04:11:22;10.04;83.67
72277;SHT30;61204;49.980;8.358;2023-04-28T04:13:47;10.01;83.47
72277;SHT30;61204;49.980;8.358;2023-04-28T04:16:13;10.03;84.02
72277;SHT30;61204;49.980;8.358;2023-04-28T04:18:42;10.00;84.91
72277;SHT30;61204;49.980;8.358;2023-04-28T04:21:07;10.01;85.98
72277;SHT30;61204;49.980;8.358;2023-04-28T04:23:32;10.00;85.56
72277;SHT30;61204;49.980;8.358;2023-04-28T04:25:58;9.98;85.58
72277;SHT30;61204;49.980;8.358;2023-04-28T04:28:23;9.96;85.40
72277;SHT30;61204;49.980;8.358;2023-04-28T04:30:49;10.00;86.38
72277;SHT30;61204;49.980;8.358;2023-04-28T04:33:14;10.04;85.82
72277;SHT30;61204;49.980;8.358;2023-04-28T04:35:40;10.05;85.12
72277;SHT30;61204;49.980;8.358;2023-04-28T04:38:06;10.05;84.42
72277;SHT30;61204;49.980;8.358;2023-04-28T04:40:31;10.08;84.52
72277;SHT30;61204;49.980;8.358;2023-04-28T04:42:57;10.07;83.87
72277;SHT30;61204;49.980;8.358;2023-04-28T04:45:22;10.05;84.68
72277;SHT30;61204;49.980;8.358;2023-04-28T04:47:51;10.04;85.34
72277;SHT30;61204;49.980;8.358;2023-04-28T04:50:17;10.01;85.77
72277;SHT30;61204;49.980;8.358;2023-04-28T04:52:45;10.01;86.44
72277;SHT30;61204;49.980;8.358;2023-04-28T04:55:10;9.97;86.16
72277;SHT30;61204;49.980;8.358;2023-04-28T04:57:38;9.94;86.27
72277;SHT30;61204;49.980;8.358;2023-04-28T05:00:04;9.96;87.69
72277;SHT30;61204;49.980;8.358;2023-04-28T05:02:30;9.94;87.77
72277;SHT30;61204;49.980;8.358;2023-04-28T05:04:58;9.89;87.79
72277;SHT30;61204;49.980;8.358;2023-04-28T05:07:24;9.87;88.11
72277;SHT30;61204;49.980;8.358;2023-04-28T05:09:50;9.87;88.47
72277;SHT30;61204;49.980;8.358;2023-04-28T05:12:16;9.85;89.35
72277;SHT30;61204;49.980;8.358;2023-04-28T05:14:41;9.89;89.57
72277;SHT30;61204;49.980;8.358;2023-04-28T05:17:07;9.87;90.60
72277;SHT30;61204;49.980;8.358;2023-04-28T05:19:32;9.85;90.85
72277;SHT30;61204;49.980;8.358;2023-04-28T05:21:57;9.82;90.90
72277;SHT30;61204;49.980;8.358;2023-04-28T05:24:25;9.79;91.08
72277;SHT30;61204;49.980;8.358;2023-04-28T05:26:51;9.73;91.02
72277;SHT30;61204;49.980;8.358;2023-04-28T05:29:22;9.70;90.76
72277;SHT30;61204;49.980;8.358;2023-04-28T05:31:47;9.75;90.90
72277;SHT30;61204;49.980;8.358;2023-04-28T05:34:13;9.75;91.27
72277;SHT30;61204;49.980;8.358;2023-04-28T05:36:38;9.76;91.43
72277;SHT30;61204;49.980;8.358;2023-04-28T05:39:03;9.76;91.55
72277;SHT30;61204;49.980;8.358;2023-04-28T05:41:29;9.76;91.52
72277;SHT30;61204;49.980;8.358;2023-04-28T05:43:57;9.73;91.82
72277;SHT30;61204;49.980;8.358;2023-04-28T05:46:22;9.69;91.83
72277;SHT30;61204;49.980;8.358;2023-04-28T05:48:50;9.69;91.86
72277;SHT30;61204;49.980;8.358;2023-04-28T05:51:15;9.72;92.48
72277;SHT30;61204;49.980;8.358;2023-04-28T05:53:41;9.73;93.08
72277;SHT30;61204;49.980;8.358;2023-04-28T05:56:06;9.73;93.41
72277;SHT30;61204;49.980;8.358;2023-04-28T05:58:32;9.73;93.71
72277;SHT30;61204;49.980;8.358;2023-04-28T06:00:58;9.72;93.52
72277;SHT30;61204;49.980;8.358;2023-04-28T06:03:26;9.70;93.47
72277;SHT30;61204;49.980;8.358;2023-04-28T06:05:54;9.72;93.79
72277;SHT30;61204;49.980;8.358;2023-04-28T06:08:20;9.69;94.04
72277;SHT30;61204;49.980;8.358;2023-04-28T06:10:45;9.75;94.55
72277;SHT30;61204;49.980;8.358;2023-04-28T06:13:11;9.76;94.84
72277;SHT30;61204;49.980;8.358;2023-04-28T06:15:36;9.76;94.76
72277;SHT30;61204;49.980;8.358;2023-04-28T06:18:02;9.76;94.83
72277;SHT30;61204;49.980;8.358;2023-04-28T06:20:30;9.82;94.92
72277;SHT30;61204;49.980;8.358;2023-04-28T06:22:55;9.80;94.95
72277;SHT30;61204;49.980;8.358;2023-04-28T06:25:21;9.85;95.05
72277;SHT30;61204;49.980;8.358;2023-04-28T06:27:48;9.85;94.75
72277;SHT30;61204;49.980;8.358;2023-04-28T06:30:21;9.83;94.30
72277;SHT30;61204;49.980;8.358;2023-04-28T06:32:47;9.85;94.65
72277;SHT30;61204;49.980;8.358;2023-04-28T06:35:14;9.85;94.57
72277;SHT30;61204;49.980;8.358;2023-04-28T06:37:40;9.87;94.74
72277;SHT30;61204;49.980;8.358;2023-04-28T06:40:09;9.91;94.82
72277;SHT30;61204;49.980;8.358;2023-04-28T06:42:35;9.91;94.90
72277;SHT30;61204;49.980;8.358;2023-04-28T06:45:01;9.93;94.81
72277;SHT30;61204;49.980;8.358;2023-04-28T06:47:27;9.97;95.01
72277;SHT30;61204;49.980;8.358;2023-04-28T06:49:52;9.97;95.02
72277;SHT30;61204;49.980;8.358;2023-04-28T06:52:18;10.07;95.26
72277;SHT30;61204;49.980;8.358;2023-04-28T06:54:46;10.07;95.07
72277;SHT30;61204;49.980;8.358;2023-04-28T06:57:12;10.10;95.27
72277;SHT30;61204;49.980;8.358;2023-04-28T06:59:37;10.10;95.06
72277;SHT30;61204;49.980;8.358;2023-04-28T07:02:03;10.18;95.33
72277;SHT30;61204;49.980;8.358;2023-04-28T07:04:29;10.21;95.38
72277;SHT30;61204;49.980;8.358;2023-04-28T07:06:54;10.24;95.47
72277;SHT30;61204;49.980;8.358;2023-04-28T07:09:20;10.25;95.36
72277;SHT30;61204;49.980;8.358;2023-04-28T07:11:45;10.24;95.24
72277;SHT30;61204;49.980;8.358;2023-04-28T07:14:13;10.25;95.49
72277;SHT30;61204;49.980;8.358;2023-04-28T07:16:41;10.25;95.42
72277;SHT30;61204;49.980;8.358;2023-04-28T07:19:09;10.30;95.46
72277;SHT30;61204;49.980;8.358;2023-04-28T07:21:35;10.30;95.11
72277;SHT30;61204;49.980;8.358;2023-04-28T07:24:00;10.34;94.99
72277;SHT30;61204;49.980;8.358;2023-04-28T07:26:26;10.41;94.63
72277;SHT30;61204;49.980;8.358;2023-04-28T07:28:53;10.55;95.15
72277;SHT30;61204;49.980;8.358;2023-04-28T07:31:19;10.55;94.73
72277;SHT30;61204;49.980;8.358;2023-04-28T07:33:45;10.59;94.76
72277;SHT30;61204;49.980;8.358;2023-04-28T07:36:11;10.63;94.32
72277;SHT30;61204;49.980;8.358;2023-04-28T07:38:37;10.72;94.32
72277;SHT30;61204;49.980;8.358;2023-04-28T07:41:02;10.73;93.46
72277;SHT30;61204;49.980;8.358;2023-04-28T07:43:29;10.62;92.73
72277;SHT30;61204;49.980;8.358;2023-04-28T07:45:55;10.59;92.90
72277;SHT30;61204;49.980;8.358;2023-04-28T07:48:20;10.62;93.35
72277;SHT30;61204;49.980;8.358;2023-04-28T07:50:48;10.67;93.74
72277;SHT30;61204;49.980;8.358;2023-04-28T07:53:14;10.67;93.33
72277;SHT30;61204;49.980;8.358;2023-04-28T07:55:39;10.76;93.47
72277;SHT30;61204;49.980;8.358;2023-04-28T07:58:07;10.73;92.33
72277;SHT30;61204;49.980;8.358;2023-04-28T08:00:33;10.73;92.39
72277;SHT30;61204;49.980;8.358;2023-04-28T08:02:58;10.86;92.40
72277;SHT30;61204;49.980;8.358;2023-04-28T08:05:24;10.96;92.99
72277;SHT30;61204;49.980;8.358;2023-04-28T08:07:49;11.08;93.15
72277;SHT30;61204;49.980;8.358;2023-04-28T08:10:15;11.27;93.56
72277;SHT30;61204;49.980;8.358;2023-04-28T08:12:40;11.27;92.86
72277;SHT30;61204;49.980;8.358;2023-04-28T08:15:08;11.36;92.94
72277;SHT30;61204;49.980;8.358;2023-04-28T08:17:34;11.43;93.07
72277;SHT30;61204;49.980;8.358;2023-04-28T08:19:59;11.55;93.00
72277;SHT30;61204;49.980;8.358;2023-04-28T08:22:25;11.72;93.10
72277;SHT30;61204;49.980;8.358;2023-04-28T08:24:50;11.69;92.28
72277;SHT30;61204;49.980;8.358;2023-04-28T08:27:16;11.79;92.45
72277;SHT30;61204;49.980;8.358;2023-04-28T08:29:41;11.93;92.69
72277;SHT30;61204;49.980;8.358;2023-04-28T08:32:07;11.98;91.88
72277;SHT30;61204;49.980;8.358;2023-04-28T08:34:32;12.05;91.88
72277;SHT30;61204;49.980;8.358;2023-04-28T08:36:58;12.20;92.29
72277;SHT30;61204;49.980;8.358;2023-04-28T08:39:24;12.30;92.03
72277;SHT30;61204;49.980;8.358;2023-04-28T08:41:53;12.28;91.12
72277;SHT30;61204;49.980;8.358;2023-04-28T08:44:18;12.42;91.44
72277;SHT30;61204;49.980;8.358;2023-04-28T08:46:45;12.49;90.68
72277;SHT30;61204;49.980;8.358;2023-04-28T08:49:15;12.72;90.21
72277;SHT30;61204;49.980;8.358;2023-04-28T08:51:55;12.49;88.38
72277;SHT30;61204;49.980;8.358;2023-04-28T08:54:29;12.56;90.33
72277;SHT30;61204;49.980;8.358;2023-04-28T08:56:56;12.72;89.42
72277;SHT30;61204;49.980;8.358;2023-04-28T08:59:22;12.80;88.92
72277;SHT30;61204;49.980;8.358;2023-04-28T09:01:48;12.83;88.00
72277;SHT30;61204;49.980;8.358;2023-04-28T09:04:18;13.11;88.64
72277;SHT30;61204;49.980;8.358;2023-04-28T09:06:44;13.24;87.41
72277;SHT30;61204;49.980;8.358;2023-04-28T09:09:24;13.31;87.65
72277;SHT30;61204;49.980;8.358;2023-04-28T09:11:54;13.65;88.56
72277;SHT30;61204;49.980;8.358;2023-04-28T09:14:22;13.87;86.46
72277;SHT30;61204;49.980;8.358;2023-04-28T09:16:48;13.94;85.60
72277;SHT30;61204;49.980;8.358;2023-04-28T09:19:15;13.80;84.38
72277;SHT30;61204;49.980;8.358;2023-04-28T09:24:33;13.90;85.38
72277;SHT30;61204;49.980;8.358;2023-04-28T09:27:03;14.22;86.37
72277;SHT30;61204;49.980;8.358;2023-04-28T09:29:32;14.01;83.33
72277;SHT30;61204;49.980;8.358;2023-04-28T09:32:17;13.93;84.13
72277;SHT30;61204;49.980;8.358;2023-04-28T09:34:48;13.94;84.12
72277;SHT30;61204;49.980;8.358;2023-04-28T09:37:33;13.93;81.46
72277;SHT30;61204;49.980;8.358;2023-04-28T09:40:07;14.14;82.39
72277;SHT30;61204;49.980;8.358;2023-04-28T09:42:42;14.22;82.83
72277;SHT30;61204;49.980;8.358;2023-04-28T09:45:14;14.03;82.16
72277;SHT30;61204;49.980;8.358;2023-04-28T09:47:42;13.86;83.04
72277;SHT30;61204;49.980;8.358;2023-04-28T09:50:11;14.09;81.92
72277;SHT30;61204;49.980;8.358;2023-04-28T09:52:45;14.54;81.55
72277;SHT30;61204;49.980;8.358;2023-04-28T09:55:21;15.01;81.79
72277;SHT30;61204;49.980;8.358;2023-04-28T09:57:48;15.34;80.11
72277;SHT30;61204;49.980;8.358;2023-04-28T10:00:19;15.67;79.42
72277;SHT30;61204;49.980;8.358;2023-04-28T10:02:48;15.55;78.76
72277;SHT30;61204;49.980;8.358;2023-04-28T10:05:16;15.78;76.72
72277;SHT30;61204;49.980;8.358;2023-04-28T10:07:41;15.66;78.06
72277;SHT30;61204;49.980;8.358;2023-04-28T10:10:07;15.69;77.12
72277;SHT30;61204;49.980;8.358;2023-04-28T10:12:33;15.87;78.50
72277;SHT30;61204;49.980;8.358;2023-04-28T10:15:02;15.99;77.75
72277;SHT30;61204;49.980;8.358;2023-04-28T10:17:29;16.01;76.34
72277;SHT30;61204;49.980;8.358;2023-04-28T10:19:54;15.85;76.08
72277;SHT30;61204;49.980;8.358;2023-04-28T10:27:49;15.49;78.14
72277;SHT30;61204;49.980;8.358;2023-04-28T10:30:23;15.26;78.00
72277;SHT30;61204;49.980;8.358;2023-04-28T10:38:18;15.61;78.57
72277;SHT30;61204;49.980;8.358;2023-04-28T10:40:51;15.83;77.09
72277;SHT30;61204;49.980;8.358;2023-04-28T10:58:38;16.32;75.55
72277;SHT30;61204;49.980;8.358;2023-04-28T11:03:48;16.82;76.02
72277;SHT30;61204;49.980;8.358;2023-04-28T11:06:38;16.83;75.05
72277;SHT30;61204;49.980;8.358;2023-04-28T11:14:35;17.03;73.24
72277;SHT30;61204;49.980;8.358;2023-04-28T11:17:06;17.62;73.72
72277;SHT30;61204;49.980;8.358;2023-04-28T11:19:44;17.52;71.36
72277;SHT30;61204;49.980;8.358;2023-04-28T11:22:15;17.39;73.02
72277;SHT30;61204;49.980;8.358;2023-04-28T11:24:54;16.96;74.15
72277;SHT30;61204;49.980;8.358;2023-04-28T11:27:30;16.62;74.87
72277;SHT30;61204;49.980;8.358;2023-04-28T11:29:57;17.17;74.18
72277;SHT30;61204;49.980;8.358;2023-04-28T11:32:28;17.36;73.17
72277;SHT30;61204;49.980;8.358;2023-04-28T11:34:55;17.34;74.32
72277;SHT30;61204;49.980;8.358;2023-04-28T11:37:21;17.10;74.75
72277;SHT30;61204;49.980;8.358;2023-04-28T11:39:49;17.28;75.57
72277;SHT30;61204;49.980;8.358;2023-04-28T11:42:15;17.61;73.85
72277;SHT30;61204;49.980;8.358;2023-04-28T11:44:48;17.69;71.50
72277;SHT30;61204;49.980;8.358;2023-04-28T11:47:32;17.61;72.52
72277;SHT30;61204;49.980;8.358;2023-04-28T11:49:58;17.71;74.43
72277;SHT30;61204;49.980;8.358;2023-04-28T11:52:25;18.13;72.99
72277;SHT30;61204;49.980;8.358;2023-04-28T11:54:55;17.87;73.75
72277;SHT30;61204;49.980;8.358;2023-04-28T11:57:23;18.00;73.02
72277;SHT30;61204;49.980;8.358;2023-04-28T11:59:51;18.06;73.87
72277;SHT30;61204;49.980;8.358;2023-04-28T12:02:26;18.03;72.10
72277;SHT30;61204;49.980;8.358;2023-04-28T12:04:54;17.68;73.01
72277;SHT30;61204;49.980;8.358;2023-04-28T12:07:41;18.75;72.85
72277;SHT30;61204;49.980;8.358;2023-04-28T12:10:13;19.30;69.99
72277;SHT30;61204;49.980;8.358;2023-04-28T12:12:44;20.23;68.89
72277;SHT30;61204;49.980;8.358;2023-04-28T12:15:11;20.42;67.56
72277;SHT30;61204;49.980;8.358;2023-04-28T12:17:39;20.49;65.66
72277;SHT30;61204;49.980;8.358;2023-04-28T12:20:32;21.17;63.09
72277;SHT30;61204;49.980;8.358;2023-04-28T12:23:02;20.76;65.02
72277;SHT30;61204;49.980;8.358;2023-04-28T12:25:28;21.14;63.54
72277;SHT30;61204;49.980;8.358;2023-04-28T12:27:59;22.12;61.70
72277;SHT30;61204;49.980;8.358;2023-04-28T12:30:31;22.62;60.65
72277;SHT30;61204;49.980;8.358;2023-04-28T12:32:58;23.48;57.44
72277;SHT30;61204;49.980;8.358;2023-04-28T12:35:24;23.38;58.08
72277;SHT30;61204;49.980;8.358;2023-04-28T12:37:52;24.00;55.89
72277;SHT30;61204;49.980;8.358;2023-04-28T12:40:22;24.00;55.79
72277;SHT30;61204;49.980;8.358;2023-04-28T12:42:48;24.51;54.82
72277;SHT30;61204;49.980;8.358;2023-04-28T12:45:14;24.92;52.60
72277;SHT30;61204;49.980;8.358;2023-04-28T12:47:41;24.92;52.39
72277;SHT30;61204;49.980;8.358;2023-04-28T12:50:07;24.19;56.90
72277;SHT30;61204;49.980;8.358;2023-04-28T12:52:33;23.95;54.76
72277;SHT30;61204;49.980;8.358;2023-04-28T12:55:00;23.19;57.86
72277;SHT30;61204;49.980;8.358;2023-04-28T12:57:26;22.85;58.98
72277;SHT30;61204;49.980;8.358;2023-04-28T12:59:53;22.17;60.18
72277;SHT30;61204;49.980;8.358;2023-04-28T13:02:22;21.71;63.38
72277;SHT30;61204;49.980;8.358;2023-04-28T13:04:48;21.52;63.00
72277;SHT30;61204;49.980;8.358;2023-04-28T13:07:15;21.42;65.88
72277;SHT30;61204;49.980;8.358;2023-04-28T13:09:42;21.13;65.07
72277;SHT30;61204;49.980;8.358;2023-04-28T13:12:08;21.08;66.08
72277;SHT30;61204;49.980;8.358;2023-04-28T13:14:34;20.64;67.20
72277;SHT30;61204;49.980;8.358;2023-04-28T13:17:02;20.18;67.44
72277;SHT30;61204;49.980;8.358;2023-04-28T13:19:28;20.06;68.75
72277;SHT30;61204;49.980;8.358;2023-04-28T13:21:58;20.42;68.85
72277;SHT30;61204;49.980;8.358;2023-04-28T13:24:24;20.59;68.67
72277;SHT30;61204;49.980;8.358;2023-04-28T13:26:51;20.47;68.14
72277;SHT30;61204;49.980;8.358;2023-04-28T13:29:16;20.16;69.14
72277;SHT30;61204;49.980;8.358;2023-04-28T13:31:42;20.28;69.32
72277;SHT30;61204;49.980;8.358;2023-04-28T13:34:08;20.40;68.85
72277;SHT30;61204;49.980;8.358;2023-04-28T13:36:40;20.25;68.98
72277;SHT30;61204;49.980;8.358;2023-04-28T13:39:06;20.20;70.26
72277;SHT30;61204;49.980;8.358;2023-04-28T13:41:35;20.09;70.31
72277;SHT30;61204;49.980;8.358;2023-04-28T13:44:04;19.58;74.14
72277;SHT30;61204;49.980;8.358;2023-04-28T13:46:29;19.86;74.74
72277;SHT30;61204;49.980;8.358;2023-04-28T13:48:57;19.00;75.48
72277;SHT30;61204;49.980;8.358;2023-04-28T13:51:23;18.85;77.11
72277;SHT30;61204;49.980;8.358;2023-04-28T13:53:48;18.51;77.65
72277;SHT30;61204;49.980;8.358;2023-04-28T13:56:14;18.58;78.17
72277;SHT30;61204;49.980;8.358;2023-04-28T13:58:40;18.72;82.94
72277;SHT30;61204;49.980;8.358;2023-04-28T14:01:05;18.49;82.59
72277;SHT30;61204;49.980;8.358;2023-04-28T14:03:32;18.40;84.59
72277;SHT30;61204;49.980;8.358;2023-04-28T14:05:58;17.99;85.47
72277;SHT30;61204;49.980;8.358;2023-04-28T14:08:24;17.89;85.54
72277;SHT30;61204;49.980;8.358;2023-04-28T14:10:50;17.85;84.32
72277;SHT30;61204;49.980;8.358;2023-04-28T14:13:17;17.99;87.01
72277;SHT30;61204;49.980;8.358;2023-04-28T14:15:43;18.28;86.04
72277;SHT30;61204;49.980;8.358;2023-04-28T14:18:10;18.37;84.25
72277;SHT30;61204;49.980;8.358;2023-04-28T14:20:37;18.44;86.47
72277;SHT30;61204;49.980;8.358;2023-04-28T14:23:02;18.52;85.38
72277;SHT30;61204;49.980;8.358;2023-04-28T14:25:28;18.58;82.73
72277;SHT30;61204;49.980;8.358;2023-04-28T14:27:54;18.82;83.07
72277;SHT30;61204;49.980;8.358;2023-04-28T14:30:20;19.04;78.91
72277;SHT30;61204;49.980;8.358;2023-04-28T14:32:46;18.79;81.36
72277;SHT30;61204;49.980;8.358;2023-04-28T14:35:13;18.99;81.05
72277;SHT30;61204;49.980;8.358;2023-04-28T14:37:39;19.17;81.12
72277;SHT30;61204;49.980;8.358;2023-04-28T14:40:06;19.51;79.02
72277;SHT30;61204;49.980;8.358;2023-04-28T14:42:33;19.31;79.01
72277;SHT30;61204;49.980;8.358;2023-04-28T14:45:05;19.31;78.81
72277;SHT30;61204;49.980;8.358;2023-04-28T14:47:33;18.97;77.87
72277;SHT30;61204;49.980;8.358;2023-04-28T14:49:59;18.73;79.80
72277;SHT30;61204;49.980;8.358;2023-04-28T14:52:25;18.72;80.52
72277;SHT30;61204;49.980;8.358;2023-04-28T14:54:53;18.79;79.21
72277;SHT30;61204;49.980;8.358;2023-04-28T14:57:20;18.69;79.73
72277;SHT30;61204;49.980;8.358;2023-04-28T14:59:45;18.96;79.47
72277;SHT30;61204;49.980;8.358;2023-04-28T15:02:11;19.20;77.59
72277;SHT30;61204;49.980;8.358;2023-04-28T15:04:40;19.16;77.78
72277;SHT30;61204;49.980;8.358;2023-04-28T15:07:05;19.34;78.73
72277;SHT30;61204;49.980;8.358;2023-04-28T15:09:33;19.41;77.70
72277;SHT30;61204;49.980;8.358;2023-04-28T15:12:00;19.78;76.69
72277;SHT30;61204;49.980;8.358;2023-04-28T15:14:27;20.16;74.65
72277;SHT30;61204;49.980;8.358;2023-04-28T15:16:53;20.51;76.18
72277;SHT30;61204;49.980;8.358;2023-04-28T15:19:18;21.08;73.11
72277;SHT30;61204;49.980;8.358;2023-04-28T15:21:47;21.07;72.69
72277;SHT30;61204;49.980;8.358;2023-04-28T15:24:13;21.30;70.44
72277;SHT30;61204;49.980;8.358;2023-04-28T15:26:40;21.62;72.37
72277;SHT30;61204;49.980;8.358;2023-04-28T15:29:08;21.65;71.68
72277;SHT30;61204;49.980;8.358;2023-04-28T15:31:35;21.47;71.33
72277;SHT30;61204;49.980;8.358;2023-04-28T15:34:01;21.45;71.86
72277;SHT30;61204;49.980;8.358;2023-04-28T15:36:27;21.26;72.09
72277;SHT30;61204;49.980;8.358;2023-04-28T15:38:53;21.11;72.57
72277;SHT30;61204;49.980;8.358;2023-04-28T15:41:19;21.03;71.52
72277;SHT30;61204;49.980;8.358;2023-04-28T15:43:45;21.13;71.42
72277;SHT30;61204;49.980;8.358;2023-04-28T15:46:11;21.58;70.94
72277;SHT30;61204;49.980;8.358;2023-04-28T15:48:44;21.26;70.86
72277;SHT30;61204;49.980;8.358;2023-04-28T15:51:10;20.68;73.36
72277;SHT30;61204;49.980;8.358;2023-04-28T15:53:36;20.68;73.62
72277;SHT30;61204;49.980;8.358;2023-04-28T15:56:05;20.79;73.19
72277;SHT30;61204;49.980;8.358;2023-04-28T15:58:32;20.96;73.59
72277;SHT30;61204;49.980;8.358;2023-04-28T16:00:57;20.25;72.99
72277;SHT30;61204;49.980;8.358;2023-04-28T16:03:23;19.78;75.33
72277;SHT30;61204;49.980;8.358;2023-04-28T16:05:52;19.57;76.52
72277;SHT30;61204;49.980;8.358;2023-04-28T16:08:18;19.59;76.44
72277;SHT30;61204;49.980;8.358;2023-04-28T16:10:46;19.44;76.55
72277;SHT30;61204;49.980;8.358;2023-04-28T16:13:14;19.24;77.33